Shoukeimaruno.3 — JI3587 — position and weather

sailwx.info

Track history (hours):
 
Tides and Currents Weather Stations Pressure Air Temp Water Temp Dewpoint Dewpoint Depression Visibility Wind Speed Wind Dir Waves Ship Positions

Shoukeimaruno.3

Last reported at 2014-Aug-20 13:30 UTC. Time now 2014-Aug-21 12:12 UTC.
Position N 34°06' E 134°46'.

Length 77 m; draft 4.2 m.

Type: Cargo ship. MMSI: 431300325.

Date/timePositionNaut miles runAvg speedWind from/ knotsBaromVisibWave heightAir tempDewpointWater temp
2014-Aug-20 13:30N 34°06' E 134°46'27 0.9
2014-Aug-19 05:23N 34°33' E 134°46'1313.1
2014-Aug-19 04:25N 34°37' E 135°01'1011.7
2014-Aug-19 03:33N 34°37' E 135°13'6 5.7
2014-Aug-19 02:33N 34°42' E 135°17'0 0.0
2014-Aug-19 01:33N 34°42' E 135°17'0 0.0
2014-Aug-19 00:34N 34°42' E 135°17'0 0.0
2014-Aug-18 23:34N 34°42' E 135°17'0 0.1
2014-Aug-18 22:34N 34°42' E 135°17'1 1.2
2014-Aug-18 21:34N 34°43' E 135°18'0 0.0
2014-Aug-18 20:33N 34°43' E 135°18'0 0.0
2014-Aug-18 19:34N 34°43' E 135°18'0 0.0
2014-Aug-18 18:33N 34°43' E 135°18'0 0.0
2014-Aug-18 17:34N 34°43' E 135°18'0 0.0
2014-Aug-18 16:34N 34°43' E 135°18'0 0.0
2014-Aug-18 15:33N 34°43' E 135°18'0 0.0
2014-Aug-18 14:33N 34°43' E 135°18'0 0.0
2014-Aug-18 13:33N 34°43' E 135°18'0 0.0
2014-Aug-18 12:33N 34°43' E 135°18'0 0.0
2014-Aug-18 11:33N 34°43' E 135°18'0 0.0
2014-Aug-18 10:33N 34°43' E 135°18'0 0.0
2014-Aug-18 09:34N 34°43' E 135°18'0 0.0
2014-Aug-18 08:33N 34°43' E 135°18'0 0.0
2014-Aug-18 07:34N 34°43' E 135°18'0 0.0
2014-Aug-18 06:33N 34°43' E 135°18'0 0.0
2014-Aug-18 05:33N 34°43' E 135°18'0 0.0
2014-Aug-18 04:33N 34°43' E 135°18'0 0.0
2014-Aug-18 03:34N 34°43' E 135°18'0 0.0
2014-Aug-18 02:34N 34°43' E 135°18'1 1.3
2014-Aug-18 01:33N 34°42' E 135°18'0 0.0
2014-Aug-18 00:33N 34°42' E 135°18'185 6.9
2014-Aug-16 21:34N 34°43' E 139°04'1110.6
2014-Aug-16 20:33N 34°53' E 139°10'1110.6
2014-Aug-16 19:32N 34°59' E 139°21'1010.6
2014-Aug-16 18:34N 35°03' E 139°33'1110.7
2014-Aug-16 17:34N 35°09' E 139°43'1010.2
2014-Aug-16 16:33N 35°19' E 139°43'1110.7
2014-Aug-16 15:33N 35°28' E 139°49'1212.0
2014-Aug-16 14:33N 35°35' E 140°02'3 3.2
2014-Aug-16 13:33N 35°36' E 140°05'0 0.0
2014-Aug-16 12:34N 35°36' E 140°05'0 0.0
2014-Aug-16 11:33N 35°36' E 140°05'0 0.0
2014-Aug-16 10:34N 35°36' E 140°05'0 0.0
2014-Aug-16 09:32N 35°36' E 140°05'0 0.0
2014-Aug-16 08:33N 35°36' E 140°05'0 0.0
2014-Aug-16 07:33N 35°36' E 140°05'0 0.0
2014-Aug-16 06:34N 35°36' E 140°05'2 1.6
2014-Aug-16 05:34N 35°35' E 140°04'1 0.6
2014-Aug-16 04:33N 35°35' E 140°04'0 0.0
2014-Aug-16 03:33N 35°35' E 140°04'0 0.0
2014-Aug-16 02:33N 35°35' E 140°04'0 0.0
2014-Aug-16 01:34N 35°35' E 140°04'0 0.0
2014-Aug-16 00:33N 35°35' E 140°04'0 0.3
2014-Aug-15 23:33N 35°35' E 140°04'1212.0
2014-Aug-15 22:33N 35°28' E 139°51'1211.7
2014-Aug-15 21:34N 35°17' E 139°45'1212.3
2014-Aug-15 20:34N 35°05' E 139°45'1211.8
2014-Aug-15 19:33N 34°53' E 139°48'1110.5
2014-Aug-15 18:28N 34°55' E 140°01'1111.0
2014-Aug-15 17:28N 35°01' E 140°12'  
Track history (hours):
 
Tides and Currents Weather Stations Pressure Air Temp Water Temp Dewpoint Dewpoint Depression Visibility Wind Speed Wind Dir Waves Ship Positions

Shoukeimaruno.3

Last reported at 2014-Aug-20 13:30 UTC. Time now 2014-Aug-21 12:12 UTC.
Position N 34°06' E 134°46'.

Length 77 m; draft 4.2 m.

Type: Cargo ship. MMSI: 431300325.

Date/timePositionNaut miles runAvg speedWind from/ knotsBaromVisibWave heightAir tempDewpointWater temp
2014-Aug-20 13:30N 34°06' E 134°46'27 0.9
2014-Aug-19 05:23N 34°33' E 134°46'1313.1
2014-Aug-19 04:25N 34°37' E 135°01'1011.7
2014-Aug-19 03:33N 34°37' E 135°13'6 5.7
2014-Aug-19 02:33N 34°42' E 135°17'0 0.0
2014-Aug-19 01:33N 34°42' E 135°17'0 0.0
2014-Aug-19 00:34N 34°42' E 135°17'0 0.0
2014-Aug-18 23:34N 34°42' E 135°17'0 0.1
2014-Aug-18 22:34N 34°42' E 135°17'1 1.2
2014-Aug-18 21:34N 34°43' E 135°18'0 0.0
2014-Aug-18 20:33N 34°43' E 135°18'0 0.0
2014-Aug-18 19:34N 34°43' E 135°18'0 0.0
2014-Aug-18 18:33N 34°43' E 135°18'0 0.0
2014-Aug-18 17:34N 34°43' E 135°18'0 0.0
2014-Aug-18 16:34N 34°43' E 135°18'0 0.0
2014-Aug-18 15:33N 34°43' E 135°18'0 0.0
2014-Aug-18 14:33N 34°43' E 135°18'0 0.0
2014-Aug-18 13:33N 34°43' E 135°18'0 0.0
2014-Aug-18 12:33N 34°43' E 135°18'0 0.0
2014-Aug-18 11:33N 34°43' E 135°18'0 0.0
2014-Aug-18 10:33N 34°43' E 135°18'0 0.0
2014-Aug-18 09:34N 34°43' E 135°18'0 0.0
2014-Aug-18 08:33N 34°43' E 135°18'0 0.0
2014-Aug-18 07:34N 34°43' E 135°18'0 0.0
2014-Aug-18 06:33N 34°43' E 135°18'0 0.0
2014-Aug-18 05:33N 34°43' E 135°18'0 0.0
2014-Aug-18 04:33N 34°43' E 135°18'0 0.0
2014-Aug-18 03:34N 34°43' E 135°18'0 0.0
2014-Aug-18 02:34N 34°43' E 135°18'1 1.3
2014-Aug-18 01:33N 34°42' E 135°18'0 0.0
2014-Aug-18 00:33N 34°42' E 135°18'185 6.9
2014-Aug-16 21:34N 34°43' E 139°04'1110.6
2014-Aug-16 20:33N 34°53' E 139°10'1110.6
2014-Aug-16 19:32N 34°59' E 139°21'1010.6
2014-Aug-16 18:34N 35°03' E 139°33'1110.7
2014-Aug-16 17:34N 35°09' E 139°43'1010.2
2014-Aug-16 16:33N 35°19' E 139°43'1110.7
2014-Aug-16 15:33N 35°28' E 139°49'1212.0
2014-Aug-16 14:33N 35°35' E 140°02'3 3.2
2014-Aug-16 13:33N 35°36' E 140°05'0 0.0
2014-Aug-16 12:34N 35°36' E 140°05'0 0.0
2014-Aug-16 11:33N 35°36' E 140°05'0 0.0
2014-Aug-16 10:34N 35°36' E 140°05'0 0.0
2014-Aug-16 09:32N 35°36' E 140°05'0 0.0
2014-Aug-16 08:33N 35°36' E 140°05'0 0.0
2014-Aug-16 07:33N 35°36' E 140°05'0 0.0
2014-Aug-16 06:34N 35°36' E 140°05'2 1.6
2014-Aug-16 05:34N 35°35' E 140°04'1 0.6
2014-Aug-16 04:33N 35°35' E 140°04'0 0.0
2014-Aug-16 03:33N 35°35' E 140°04'0 0.0
2014-Aug-16 02:33N 35°35' E 140°04'0 0.0
2014-Aug-16 01:34N 35°35' E 140°04'0 0.0
2014-Aug-16 00:33N 35°35' E 140°04'0 0.3
2014-Aug-15 23:33N 35°35' E 140°04'1212.0
2014-Aug-15 22:33N 35°28' E 139°51'1211.7
2014-Aug-15 21:34N 35°17' E 139°45'1212.3
2014-Aug-15 20:34N 35°05' E 139°45'1211.8
2014-Aug-15 19:33N 34°53' E 139°48'1110.5
2014-Aug-15 18:28N 34°55' E 140°01'1111.0
2014-Aug-15 17:28N 35°01' E 140°12'  

Dump ship's entire track history